sensor_id;sensor_type;location;lat;lon;timestamp;P1;durP1;ratioP1;P2;durP2;ratioP2
20896;SDS011;10608;42.600;23.398;2022-11-15T00:01:39;32.87;;;31.50;;
20896;SDS011;10608;42.600;23.398;2022-11-15T00:04:05;31.80;;;30.50;;
20896;SDS011;10608;42.600;23.398;2022-11-15T00:06:31;37.47;;;35.93;;
20896;SDS011;10608;42.600;23.398;2022-11-15T00:09:00;27.97;;;26.87;;
20896;SDS011;10608;42.600;23.398;2022-11-15T00:11:26;26.70;;;25.63;;
20896;SDS011;10608;42.600;23.398;2022-11-15T00:13:54;24.87;;;23.87;;
20896;SDS011;10608;42.600;23.398;2022-11-15T00:16:20;24.60;;;23.60;;
20896;SDS011;10608;42.600;23.398;2022-11-15T00:18:45;19.13;;;18.37;;
20896;SDS011;10608;42.600;23.398;2022-11-15T00:21:11;21.50;;;20.67;;
20896;SDS011;10608;42.600;23.398;2022-11-15T00:23:38;23.30;;;22.30;;
20896;SDS011;10608;42.600;23.398;2022-11-15T00:26:04;24.93;;;23.93;;
20896;SDS011;10608;42.600;23.398;2022-11-15T00:28:30;30.53;;;29.33;;
20896;SDS011;10608;42.600;23.398;2022-11-15T00:31:02;37.10;;;35.60;;
20896;SDS011;10608;42.600;23.398;2022-11-15T00:33:28;40.57;;;38.87;;
20896;SDS011;10608;42.600;23.398;2022-11-15T00:36:05;34.27;;;32.87;;
20896;SDS011;10608;42.600;23.398;2022-11-15T00:38:32;30.17;;;28.93;;
20896;SDS011;10608;42.600;23.398;2022-11-15T00:40:59;28.93;;;27.77;;
20896;SDS011;10608;42.600;23.398;2022-11-15T00:43:25;23.40;;;22.47;;
20896;SDS011;10608;42.600;23.398;2022-11-15T00:45:51;24.87;;;23.87;;
20896;SDS011;10608;42.600;23.398;2022-11-15T00:48:17;20.57;;;19.77;;
20896;SDS011;10608;42.600;23.398;2022-11-15T00:50:42;19.77;;;18.97;;
20896;SDS011;10608;42.600;23.398;2022-11-15T00:53:08;19.87;;;19.07;;
20896;SDS011;10608;42.600;23.398;2022-11-15T00:55:33;22.00;;;21.10;;
20896;SDS011;10608;42.600;23.398;2022-11-15T00:57:59;17.80;;;17.10;;
20896;SDS011;10608;42.600;23.398;2022-11-15T01:00:24;21.03;;;20.23;;
20896;SDS011;10608;42.600;23.398;2022-11-15T01:02:50;17.57;;;16.87;;
20896;SDS011;10608;42.600;23.398;2022-11-15T01:05:15;16.57;;;15.97;;
20896;SDS011;10608;42.600;23.398;2022-11-15T01:07:41;18.23;;;17.53;;
20896;SDS011;10608;42.600;23.398;2022-11-15T01:10:06;16.67;;;16.03;;
20896;SDS011;10608;42.600;23.398;2022-11-15T01:12:32;16.40;;;15.77;;
20896;SDS011;10608;42.600;23.398;2022-11-15T01:14:58;20.27;;;19.43;;
20896;SDS011;10608;42.600;23.398;2022-11-15T01:17:23;17.80;;;17.10;;
20896;SDS011;10608;42.600;23.398;2022-11-15T01:19:49;18.30;;;17.47;;
20896;SDS011;10608;42.600;23.398;2022-11-15T01:22:14;19.13;;;18.40;;
20896;SDS011;10608;42.600;23.398;2022-11-15T01:24:40;20.33;;;19.53;;
20896;SDS011;10608;42.600;23.398;2022-11-15T01:27:06;18.23;;;17.53;;
20896;SDS011;10608;42.600;23.398;2022-11-15T01:29:32;18.80;;;18.10;;
20896;SDS011;10608;42.600;23.398;2022-11-15T01:31:57;19.50;;;18.70;;
20896;SDS011;10608;42.600;23.398;2022-11-15T01:34:23;22.03;;;21.10;;
20896;SDS011;10608;42.600;23.398;2022-11-15T01:36:48;20.27;;;19.47;;
20896;SDS011;10608;42.600;23.398;2022-11-15T01:39:14;21.00;;;20.20;;
20896;SDS011;10608;42.600;23.398;2022-11-15T01:41:40;19.03;;;18.30;;
20896;SDS011;10608;42.600;23.398;2022-11-15T01:49:57;15.70;;;15.10;;
20896;SDS011;10608;42.600;23.398;2022-11-15T01:52:27;17.30;;;16.60;;
20896;SDS011;10608;42.600;23.398;2022-11-15T01:55:06;18.00;;;17.30;;
20896;SDS011;10608;42.600;23.398;2022-11-15T01:57:37;19.53;;;18.73;;
20896;SDS011;10608;42.600;23.398;2022-11-15T02:00:04;20.70;;;19.90;;
20896;SDS011;10608;42.600;23.398;2022-11-15T02:02:30;23.30;;;22.37;;
20896;SDS011;10608;42.600;23.398;2022-11-15T02:04:57;23.50;;;22.57;;
20896;SDS011;10608;42.600;23.398;2022-11-15T02:07:23;27.53;;;26.47;;
20896;SDS011;10608;42.600;23.398;2022-11-15T02:09:48;23.00;;;22.10;;
20896;SDS011;10608;42.600;23.398;2022-11-15T02:12:16;27.83;;;26.67;;
20896;SDS011;10608;42.600;23.398;2022-11-15T02:14:47;28.60;;;27.47;;
20896;SDS011;10608;42.600;23.398;2022-11-15T02:23:20;28.23;;;27.10;;
20896;SDS011;10608;42.600;23.398;2022-11-15T02:29:07;27.30;;;26.23;;
20896;SDS011;10608;42.600;23.398;2022-11-15T02:31:41;26.60;;;25.57;;
20896;SDS011;10608;42.600;23.398;2022-11-15T02:34:15;30.60;;;29.37;;
20896;SDS011;10608;42.600;23.398;2022-11-15T02:40:08;29.83;;;28.63;;
20896;SDS011;10608;42.600;23.398;2022-11-15T02:42:34;18.97;;;18.20;;
20896;SDS011;10608;42.600;23.398;2022-11-15T02:45:27;21.93;;;21.07;;
20896;SDS011;10608;42.600;23.398;2022-11-15T02:47:58;24.33;;;23.37;;
20896;SDS011;10608;42.600;23.398;2022-11-15T02:50:27;25.43;;;24.40;;
20896;SDS011;10608;42.600;23.398;2022-11-15T02:52:54;26.07;;;25.03;;
20896;SDS011;10608;42.600;23.398;2022-11-15T03:00:34;21.10;;;20.27;;
20896;SDS011;10608;42.600;23.398;2022-11-15T03:03:15;24.23;;;23.30;;
20896;SDS011;10608;42.600;23.398;2022-11-15T03:05:59;20.57;;;19.77;;
20896;SDS011;10608;42.600;23.398;2022-11-15T03:08:40;16.30;;;15.67;;
20896;SDS011;10608;42.600;23.398;2022-11-15T03:13:48;15.93;;;15.33;;
20896;SDS011;10608;42.600;23.398;2022-11-15T03:16:38;16.30;;;15.70;;
20896;SDS011;10608;42.600;23.398;2022-11-15T03:19:13;16.87;;;16.23;;
20896;SDS011;10608;42.600;23.398;2022-11-15T03:21:45;17.00;;;16.33;;
20896;SDS011;10608;42.600;23.398;2022-11-15T03:24:14;16.80;;;16.17;;
20896;SDS011;10608;42.600;23.398;2022-11-15T03:26:43;17.00;;;16.30;;
20896;SDS011;10608;42.600;23.398;2022-11-15T03:29:14;15.77;;;15.17;;
20896;SDS011;10608;42.600;23.398;2022-11-15T03:31:44;21.87;;;21.00;;
20896;SDS011;10608;42.600;23.398;2022-11-15T03:34:19;27.70;;;26.60;;
20896;SDS011;10608;42.600;23.398;2022-11-15T03:36:47;19.63;;;18.83;;
20896;SDS011;10608;42.600;23.398;2022-11-15T03:39:14;19.93;;;19.13;;
20896;SDS011;10608;42.600;23.398;2022-11-15T03:41:50;20.40;;;19.60;;
20896;SDS011;10608;42.600;23.398;2022-11-15T03:49:49;19.47;;;18.57;;
20896;SDS011;10608;42.600;23.398;2022-11-15T03:52:21;18.80;;;18.10;;
20896;SDS011;10608;42.600;23.398;2022-11-15T03:54:50;19.30;;;18.53;;
20896;SDS011;10608;42.600;23.398;2022-11-15T03:57:18;23.13;;;22.23;;
20896;SDS011;10608;42.600;23.398;2022-11-15T03:59:44;21.37;;;20.57;;
20896;SDS011;10608;42.600;23.398;2022-11-15T04:02:09;29.77;;;28.57;;
20896;SDS011;10608;42.600;23.398;2022-11-15T04:04:37;33.57;;;32.20;;
20896;SDS011;10608;42.600;23.398;2022-11-15T04:07:02;38.10;;;36.53;;
20896;SDS011;10608;42.600;23.398;2022-11-15T04:09:28;35.37;;;33.93;;
20896;SDS011;10608;42.600;23.398;2022-11-15T04:11:53;47.20;;;45.27;;
20896;SDS011;10608;42.600;23.398;2022-11-15T04:14:18;30.50;;;29.30;;
20896;SDS011;10608;42.600;23.398;2022-11-15T04:16:44;26.17;;;25.17;;
20896;SDS011;10608;42.600;23.398;2022-11-15T04:19:09;35.83;;;34.37;;
20896;SDS011;10608;42.600;23.398;2022-11-15T04:21:53;37.40;;;35.87;;
20896;SDS011;10608;42.600;23.398;2022-11-15T04:24:37;25.00;;;24.00;;
20896;SDS011;10608;42.600;23.398;2022-11-15T04:27:02;27.20;;;26.10;;
20896;SDS011;10608;42.600;23.398;2022-11-15T04:29:28;32.53;;;31.23;;
20896;SDS011;10608;42.600;23.398;2022-11-15T04:32:00;31.60;;;30.30;;
20896;SDS011;10608;42.600;23.398;2022-11-15T04:34:28;28.23;;;27.13;;
20896;SDS011;10608;42.600;23.398;2022-11-15T04:36:54;33.40;;;32.03;;
20896;SDS011;10608;42.600;23.398;2022-11-15T04:39:41;31.73;;;30.47;;
20896;SDS011;10608;42.600;23.398;2022-11-15T04:42:08;30.97;;;29.73;;
20896;SDS011;10608;42.600;23.398;2022-11-15T04:44:34;38.97;;;37.37;;
20896;SDS011;10608;42.600;23.398;2022-11-15T04:47:00;35.23;;;33.83;;
20896;SDS011;10608;42.600;23.398;2022-11-15T04:49:26;26.60;;;25.53;;
20896;SDS011;10608;42.600;23.398;2022-11-15T04:51:52;26.13;;;25.13;;
20896;SDS011;10608;42.600;23.398;2022-11-15T04:54:17;24.53;;;23.53;;
20896;SDS011;10608;42.600;23.398;2022-11-15T04:56:43;22.87;;;21.97;;
20896;SDS011;10608;42.600;23.398;2022-11-15T04:59:08;21.73;;;20.87;;
20896;SDS011;10608;42.600;23.398;2022-11-15T05:01:34;23.70;;;22.77;;
20896;SDS011;10608;42.600;23.398;2022-11-15T05:03:59;23.93;;;23.00;;
20896;SDS011;10608;42.600;23.398;2022-11-15T05:06:43;23.07;;;22.17;;
20896;SDS011;10608;42.600;23.398;2022-11-15T05:09:08;19.87;;;19.07;;
20896;SDS011;10608;42.600;23.398;2022-11-15T05:11:34;21.23;;;20.43;;
20896;SDS011;10608;42.600;23.398;2022-11-15T05:13:59;22.90;;;22.00;;
20896;SDS011;10608;42.600;23.398;2022-11-15T05:16:25;23.03;;;22.13;;
20896;SDS011;10608;42.600;23.398;2022-11-15T05:18:51;26.80;;;25.70;;
20896;SDS011;10608;42.600;23.398;2022-11-15T05:21:19;27.87;;;26.77;;
20896;SDS011;10608;42.600;23.398;2022-11-15T05:23:45;28.37;;;27.27;;
20896;SDS011;10608;42.600;23.398;2022-11-15T05:26:10;29.23;;;28.03;;
20896;SDS011;10608;42.600;23.398;2022-11-15T05:28:37;31.30;;;30.03;;
20896;SDS011;10608;42.600;23.398;2022-11-15T05:31:07;29.77;;;28.57;;
20896;SDS011;10608;42.600;23.398;2022-11-15T05:33:35;27.80;;;26.70;;
20896;SDS011;10608;42.600;23.398;2022-11-15T05:36:04;26.43;;;25.40;;
20896;SDS011;10608;42.600;23.398;2022-11-15T05:38:34;26.93;;;25.83;;
20896;SDS011;10608;42.600;23.398;2022-11-15T05:41:00;25.70;;;24.70;;
20896;SDS011;10608;42.600;23.398;2022-11-15T05:43:27;25.03;;;24.03;;
20896;SDS011;10608;42.600;23.398;2022-11-15T05:45:55;27.00;;;25.90;;
20896;SDS011;10608;42.600;23.398;2022-11-15T05:48:22;23.37;;;22.47;;
20896;SDS011;10608;42.600;23.398;2022-11-15T05:50:47;25.73;;;24.73;;
20896;SDS011;10608;42.600;23.398;2022-11-15T05:53:14;25.27;;;24.27;;
20896;SDS011;10608;42.600;23.398;2022-11-15T05:55:43;21.60;;;20.77;;
20896;SDS011;10608;42.600;23.398;2022-11-15T05:58:08;21.27;;;20.43;;
20896;SDS011;10608;42.600;23.398;2022-11-15T06:00:34;20.60;;;19.80;;
20896;SDS011;10608;42.600;23.398;2022-11-15T06:02:59;21.60;;;20.73;;
20896;SDS011;10608;42.600;23.398;2022-11-15T06:05:25;28.37;;;27.17;;
20896;SDS011;10608;42.600;23.398;2022-11-15T06:07:50;45.27;;;43.43;;
20896;SDS011;10608;42.600;23.398;2022-11-15T06:10:16;37.40;;;35.90;;
20896;SDS011;10608;42.600;23.398;2022-11-15T06:12:41;25.03;;;24.00;;
20896;SDS011;10608;42.600;23.398;2022-11-15T06:15:07;31.50;;;30.23;;
20896;SDS011;10608;42.600;23.398;2022-11-15T06:17:33;29.37;;;28.17;;
20896;SDS011;10608;42.600;23.398;2022-11-15T06:19:58;20.00;;;19.20;;
20896;SDS011;10608;42.600;23.398;2022-11-15T06:22:24;29.97;;;28.77;;
20896;SDS011;10608;42.600;23.398;2022-11-15T06:24:49;19.33;;;18.57;;
20896;SDS011;10608;42.600;23.398;2022-11-15T06:27:14;51.80;;;49.60;;
20896;SDS011;10608;42.600;23.398;2022-11-15T06:29:46;42.90;;;41.10;;
20896;SDS011;10608;42.600;23.398;2022-11-15T06:32:11;40.83;;;39.13;;
20896;SDS011;10608;42.600;23.398;2022-11-15T06:34:36;27.27;;;26.17;;
20896;SDS011;10608;42.600;23.398;2022-11-15T06:37:02;25.33;;;24.33;;
20896;SDS011;10608;42.600;23.398;2022-11-15T06:39:27;36.27;;;34.77;;
20896;SDS011;10608;42.600;23.398;2022-11-15T06:41:53;30.40;;;29.17;;
20896;SDS011;10608;42.600;23.398;2022-11-15T06:44:18;31.07;;;29.80;;
20896;SDS011;10608;42.600;23.398;2022-11-15T06:46:44;22.27;;;21.27;;
20896;SDS011;10608;42.600;23.398;2022-11-15T06:49:09;21.63;;;20.73;;
20896;SDS011;10608;42.600;23.398;2022-11-15T06:51:35;34.67;;;33.23;;
20896;SDS011;10608;42.600;23.398;2022-11-15T06:54:00;21.00;;;20.20;;
20896;SDS011;10608;42.600;23.398;2022-11-15T06:56:25;43.63;;;41.83;;
20896;SDS011;10608;42.600;23.398;2022-11-15T06:58:51;44.87;;;42.87;;
20896;SDS011;10608;42.600;23.398;2022-11-15T07:01:16;50.60;;;48.53;;
20896;SDS011;10608;42.600;23.398;2022-11-15T07:03:42;21.17;;;20.27;;
20896;SDS011;10608;42.600;23.398;2022-11-15T07:06:08;30.33;;;29.07;;
20896;SDS011;10608;42.600;23.398;2022-11-15T07:08:34;27.20;;;26.00;;
20896;SDS011;10608;42.600;23.398;2022-11-15T07:11:01;43.90;;;41.87;;
20896;SDS011;10608;42.600;23.398;2022-11-15T07:13:29;17.97;;;17.27;;
20896;SDS011;10608;42.600;23.398;2022-11-15T07:15:58;25.37;;;24.33;;
20896;SDS011;10608;42.600;23.398;2022-11-15T07:18:26;18.90;;;18.13;;
20896;SDS011;10608;42.600;23.398;2022-11-15T07:20:52;19.13;;;18.33;;
20896;SDS011;10608;42.600;23.398;2022-11-15T07:23:17;35.27;;;33.83;;
20896;SDS011;10608;42.600;23.398;2022-11-15T07:25:43;35.47;;;34.03;;
20896;SDS011;10608;42.600;23.398;2022-11-15T07:28:08;26.57;;;25.43;;
20896;SDS011;10608;42.600;23.398;2022-11-15T07:30:34;42.60;;;40.80;;
20896;SDS011;10608;42.600;23.398;2022-11-15T07:33:00;39.07;;;37.43;;
20896;SDS011;10608;42.600;23.398;2022-11-15T07:35:26;22.03;;;21.07;;
20896;SDS011;10608;42.600;23.398;2022-11-15T07:37:59;18.07;;;17.37;;
20896;SDS011;10608;42.600;23.398;2022-11-15T07:40:29;14.70;;;14.10;;
20896;SDS011;10608;42.600;23.398;2022-11-15T07:43:03;24.77;;;23.77;;
20896;SDS011;10608;42.600;23.398;2022-11-15T07:45:30;19.93;;;19.07;;
20896;SDS011;10608;42.600;23.398;2022-11-15T07:47:56;29.90;;;28.60;;
20896;SDS011;10608;42.600;23.398;2022-11-15T07:50:22;17.53;;;16.83;;
20896;SDS011;10608;42.600;23.398;2022-11-15T07:52:53;25.67;;;24.47;;
20896;SDS011;10608;42.600;23.398;2022-11-15T07:55:20;16.27;;;15.67;;
20896;SDS011;10608;42.600;23.398;2022-11-15T07:57:45;14.77;;;14.17;;
20896;SDS011;10608;42.600;23.398;2022-11-15T08:00:11;20.07;;;19.20;;
20896;SDS011;10608;42.600;23.398;2022-11-15T08:02:36;14.00;;;13.43;;
20896;SDS011;10608;42.600;23.398;2022-11-15T08:05:02;10.43;;;10.00;;
20896;SDS011;10608;42.600;23.398;2022-11-15T08:07:29;10.20;;;9.80;;
20896;SDS011;10608;42.600;23.398;2022-11-15T08:09:55;11.93;;;11.43;;
20896;SDS011;10608;42.600;23.398;2022-11-15T08:12:21;11.03;;;10.63;;
20896;SDS011;10608;42.600;23.398;2022-11-15T08:14:47;9.73;;;9.33;;
20896;SDS011;10608;42.600;23.398;2022-11-15T08:17:13;14.27;;;13.67;;
20896;SDS011;10608;42.600;23.398;2022-11-15T08:19:38;12.60;;;12.10;;
20896;SDS011;10608;42.600;23.398;2022-11-15T08:22:04;18.60;;;17.67;;
20896;SDS011;10608;42.600;23.398;2022-11-15T08:24:29;15.17;;;14.57;;
20896;SDS011;10608;42.600;23.398;2022-11-15T08:26:55;18.13;;;17.37;;
20896;SDS011;10608;42.600;23.398;2022-11-15T08:29:20;28.40;;;27.20;;
20896;SDS011;10608;42.600;23.398;2022-11-15T08:31:46;22.20;;;21.30;;
20896;SDS011;10608;42.600;23.398;2022-11-15T08:34:11;23.77;;;22.80;;
20896;SDS011;10608;42.600;23.398;2022-11-15T08:36:36;16.83;;;16.13;;
20896;SDS011;10608;42.600;23.398;2022-11-15T08:39:02;26.33;;;25.27;;
20896;SDS011;10608;42.600;23.398;2022-11-15T08:41:29;23.17;;;22.23;;
20896;SDS011;10608;42.600;23.398;2022-11-15T08:43:56;23.13;;;22.13;;
20896;SDS011;10608;42.600;23.398;2022-11-15T08:46:22;27.27;;;26.17;;
20896;SDS011;10608;42.600;23.398;2022-11-15T08:48:48;24.87;;;23.87;;
20896;SDS011;10608;42.600;23.398;2022-11-15T08:51:13;16.13;;;15.50;;
20896;SDS011;10608;42.600;23.398;2022-11-15T08:53:39;19.27;;;18.50;;
20896;SDS011;10608;42.600;23.398;2022-11-15T08:56:08;29.80;;;28.53;;
20896;SDS011;10608;42.600;23.398;2022-11-15T08:58:35;20.77;;;19.97;;
20896;SDS011;10608;42.600;23.398;2022-11-15T09:01:01;16.50;;;15.83;;
20896;SDS011;10608;42.600;23.398;2022-11-15T09:03:27;21.80;;;20.90;;
20896;SDS011;10608;42.600;23.398;2022-11-15T09:05:57;27.40;;;26.30;;
20896;SDS011;10608;42.600;23.398;2022-11-15T09:08:23;19.83;;;19.03;;
20896;SDS011;10608;42.600;23.398;2022-11-15T09:10:50;18.23;;;17.50;;
20896;SDS011;10608;42.600;23.398;2022-11-15T09:13:15;17.70;;;17.00;;
20896;SDS011;10608;42.600;23.398;2022-11-15T09:15:41;14.00;;;13.40;;
20896;SDS011;10608;42.600;23.398;2022-11-15T09:18:06;15.47;;;14.87;;
20896;SDS011;10608;42.600;23.398;2022-11-15T09:20:32;58.00;;;55.63;;
20896;SDS011;10608;42.600;23.398;2022-11-15T09:23:01;15.83;;;15.13;;
20896;SDS011;10608;42.600;23.398;2022-11-15T09:25:28;13.60;;;13.10;;
20896;SDS011;10608;42.600;23.398;2022-11-15T09:27:54;15.07;;;14.47;;
20896;SDS011;10608;42.600;23.398;2022-11-15T09:30:19;12.00;;;11.50;;
20896;SDS011;10608;42.600;23.398;2022-11-15T09:32:45;12.60;;;12.10;;
20896;SDS011;10608;42.600;23.398;2022-11-15T09:35:10;15.03;;;14.40;;
20896;SDS011;10608;42.600;23.398;2022-11-15T09:37:35;15.10;;;14.50;;
20896;SDS011;10608;42.600;23.398;2022-11-15T09:40:01;16.07;;;15.37;;
20896;SDS011;10608;42.600;23.398;2022-11-15T09:45:58;22.00;;;20.80;;
20896;SDS011;10608;42.600;23.398;2022-11-15T09:48:53;17.73;;;16.77;;
20896;SDS011;10608;42.600;23.398;2022-11-15T09:56:56;24.27;;;23.00;;
20896;SDS011;10608;42.600;23.398;2022-11-15T10:05:30;18.13;;;17.33;;
20896;SDS011;10608;42.600;23.398;2022-11-15T10:11:00;15.87;;;15.27;;
20896;SDS011;10608;42.600;23.398;2022-11-15T10:13:29;13.17;;;12.57;;
20896;SDS011;10608;42.600;23.398;2022-11-15T10:16:03;24.93;;;23.70;;
20896;SDS011;10608;42.600;23.398;2022-11-15T10:21:21;22.37;;;21.47;;
20896;SDS011;10608;42.600;23.398;2022-11-15T10:23:54;19.20;;;18.40;;
20896;SDS011;10608;42.600;23.398;2022-11-15T10:26:20;28.97;;;27.77;;
20896;SDS011;10608;42.600;23.398;2022-11-15T10:28:46;38.33;;;36.67;;
20896;SDS011;10608;42.600;23.398;2022-11-15T10:31:22;27.57;;;26.37;;
20896;SDS011;10608;42.600;23.398;2022-11-15T10:33:50;20.87;;;20.03;;
20896;SDS011;10608;42.600;23.398;2022-11-15T10:36:20;30.87;;;29.53;;
20896;SDS011;10608;42.600;23.398;2022-11-15T10:41:15;28.17;;;26.90;;
20896;SDS011;10608;42.600;23.398;2022-11-15T10:43:40;35.97;;;34.47;;
20896;SDS011;10608;42.600;23.398;2022-11-15T10:46:19;28.70;;;27.53;;
20896;SDS011;10608;42.600;23.398;2022-11-15T10:48:47;25.43;;;24.37;;
20896;SDS011;10608;42.600;23.398;2022-11-15T10:51:22;22.53;;;21.53;;
20896;SDS011;10608;42.600;23.398;2022-11-15T10:53:53;24.40;;;23.37;;
20896;SDS011;10608;42.600;23.398;2022-11-15T10:56:20;28.83;;;27.57;;
20896;SDS011;10608;42.600;23.398;2022-11-15T10:58:56;15.90;;;15.20;;
20896;SDS011;10608;42.600;23.398;2022-11-15T11:01:23;13.40;;;12.80;;
20896;SDS011;10608;42.600;23.398;2022-11-15T11:04:07;15.63;;;14.93;;
20896;SDS011;10608;42.600;23.398;2022-11-15T11:06:47;15.23;;;14.63;;
20896;SDS011;10608;42.600;23.398;2022-11-15T11:11:50;14.83;;;14.23;;
20896;SDS011;10608;42.600;23.398;2022-11-15T11:14:26;19.30;;;18.50;;
20896;SDS011;10608;42.600;23.398;2022-11-15T11:33:33;23.60;;;22.60;;
20896;SDS011;10608;42.600;23.398;2022-11-15T11:36:11;27.93;;;26.73;;
20896;SDS011;10608;42.600;23.398;2022-11-15T11:47:12;24.87;;;23.87;;
20896;SDS011;10608;42.600;23.398;2022-11-15T11:49:51;22.83;;;21.93;;
20896;SDS011;10608;42.600;23.398;2022-11-15T11:52:37;21.00;;;19.93;;
20896;SDS011;10608;42.600;23.398;2022-11-15T12:17:00;17.93;;;17.23;;
20896;SDS011;10608;42.600;23.398;2022-11-15T12:19:26;19.97;;;19.17;;
20896;SDS011;10608;42.600;23.398;2022-11-15T12:21:55;20.70;;;19.80;;
20896;SDS011;10608;42.600;23.398;2022-11-15T12:24:34;17.80;;;17.10;;
20896;SDS011;10608;42.600;23.398;2022-11-15T12:27:07;17.73;;;16.87;;
20896;SDS011;10608;42.600;23.398;2022-11-15T12:29:43;20.37;;;19.53;;
20896;SDS011;10608;42.600;23.398;2022-11-15T12:32:18;27.63;;;26.47;;
20896;SDS011;10608;42.600;23.398;2022-11-15T12:34:46;17.60;;;16.90;;
20896;SDS011;10608;42.600;23.398;2022-11-15T12:38:14;17.87;;;17.13;;
20896;SDS011;10608;42.600;23.398;2022-11-15T12:40:17;17.33;;;16.43;;
20896;SDS011;10608;42.600;23.398;2022-11-15T13:06:59;15.60;;;14.90;;
20896;SDS011;10608;42.600;23.398;2022-11-15T13:11:53;17.90;;;17.17;;
20896;SDS011;10608;42.600;23.398;2022-11-15T13:14:38;20.67;;;19.80;;
20896;SDS011;10608;42.600;23.398;2022-11-15T13:17:31;18.83;;;18.07;;
20896;SDS011;10608;42.600;23.398;2022-11-15T13:28:22;20.90;;;20.07;;
20896;SDS011;10608;42.600;23.398;2022-11-15T13:30:59;30.50;;;29.20;;
20896;SDS011;10608;42.600;23.398;2022-11-15T13:36:05;29.73;;;28.50;;
20896;SDS011;10608;42.600;23.398;2022-11-15T13:38:55;23.33;;;22.33;;
20896;SDS011;10608;42.600;23.398;2022-11-15T13:41:48;21.17;;;20.30;;
20896;SDS011;10608;42.600;23.398;2022-11-15T13:44:33;16.20;;;15.60;;
20896;SDS011;10608;42.600;23.398;2022-11-15T13:47:02;20.10;;;19.30;;
20896;SDS011;10608;42.600;23.398;2022-11-15T13:49:31;23.70;;;22.73;;
20896;SDS011;10608;42.600;23.398;2022-11-15T13:51:59;25.23;;;24.23;;
20896;SDS011;10608;42.600;23.398;2022-11-15T13:54:38;28.43;;;27.17;;
20896;SDS011;10608;42.600;23.398;2022-11-15T13:57:23;23.57;;;22.57;;
20896;SDS011;10608;42.600;23.398;2022-11-15T13:59:53;31.33;;;30.00;;
20896;SDS011;10608;42.600;23.398;2022-11-15T14:02:26;41.93;;;40.20;;
20896;SDS011;10608;42.600;23.398;2022-11-15T14:04:59;39.90;;;38.23;;
20896;SDS011;10608;42.600;23.398;2022-11-15T14:07:30;36.53;;;34.97;;
20896;SDS011;10608;42.600;23.398;2022-11-15T14:09:55;27.20;;;26.07;;
20896;SDS011;10608;42.600;23.398;2022-11-15T14:12:23;22.77;;;21.83;;
20896;SDS011;10608;42.600;23.398;2022-11-15T14:14:57;20.07;;;19.20;;
20896;SDS011;10608;42.600;23.398;2022-11-15T14:19:55;15.10;;;14.50;;
20896;SDS011;10608;42.600;23.398;2022-11-15T14:22:28;16.83;;;16.03;;
20896;SDS011;10608;42.600;23.398;2022-11-15T14:25:17;19.27;;;18.47;;
20896;SDS011;10608;42.600;23.398;2022-11-15T14:30:40;18.60;;;17.80;;
20896;SDS011;10608;42.600;23.398;2022-11-15T14:33:21;21.53;;;20.63;;
20896;SDS011;10608;42.600;23.398;2022-11-15T14:35:47;27.70;;;26.57;;
20896;SDS011;10608;42.600;23.398;2022-11-15T14:38:13;34.93;;;33.30;;
20896;SDS011;10608;42.600;23.398;2022-11-15T14:40:41;38.90;;;37.27;;
20896;SDS011;10608;42.600;23.398;2022-11-15T14:43:08;39.87;;;38.20;;
20896;SDS011;10608;42.600;23.398;2022-11-15T14:45:35;39.67;;;38.03;;
20896;SDS011;10608;42.600;23.398;2022-11-15T14:48:00;41.27;;;39.20;;
20896;SDS011;10608;42.600;23.398;2022-11-15T14:50:26;43.43;;;41.63;;
20896;SDS011;10608;42.600;23.398;2022-11-15T14:52:52;46.27;;;44.37;;
20896;SDS011;10608;42.600;23.398;2022-11-15T14:55:20;30.57;;;29.27;;
20896;SDS011;10608;42.600;23.398;2022-11-15T14:57:48;26.57;;;25.50;;
20896;SDS011;10608;42.600;23.398;2022-11-15T15:00:14;22.40;;;21.50;;
20896;SDS011;10608;42.600;23.398;2022-11-15T15:02:41;22.07;;;21.13;;
20896;SDS011;10608;42.600;23.398;2022-11-15T15:05:21;27.30;;;26.10;;
20896;SDS011;10608;42.600;23.398;2022-11-15T15:07:48;24.87;;;23.67;;
20896;SDS011;10608;42.600;23.398;2022-11-15T15:10:15;17.10;;;16.40;;
20896;SDS011;10608;42.600;23.398;2022-11-15T15:12:41;17.27;;;16.50;;
20896;SDS011;10608;42.600;23.398;2022-11-15T15:15:13;18.77;;;18.00;;
20896;SDS011;10608;42.600;23.398;2022-11-15T15:17:40;20.83;;;19.93;;
20896;SDS011;10608;42.600;23.398;2022-11-15T15:20:06;18.43;;;17.73;;
20896;SDS011;10608;42.600;23.398;2022-11-15T15:22:32;20.77;;;19.90;;
20896;SDS011;10608;42.600;23.398;2022-11-15T15:24:57;25.17;;;24.10;;
20896;SDS011;10608;42.600;23.398;2022-11-15T15:27:24;26.23;;;25.17;;
20896;SDS011;10608;42.600;23.398;2022-11-15T15:29:49;30.00;;;28.80;;
20896;SDS011;10608;42.600;23.398;2022-11-15T15:32:15;33.83;;;32.43;;
20896;SDS011;10608;42.600;23.398;2022-11-15T15:34:41;23.70;;;22.73;;
20896;SDS011;10608;42.600;23.398;2022-11-15T15:37:23;21.17;;;20.27;;
20896;SDS011;10608;42.600;23.398;2022-11-15T15:39:53;19.80;;;19.00;;
20896;SDS011;10608;42.600;23.398;2022-11-15T15:42:20;26.17;;;25.07;;
20896;SDS011;10608;42.600;23.398;2022-11-15T15:44:47;43.87;;;42.00;;
20896;SDS011;10608;42.600;23.398;2022-11-15T15:47:14;29.53;;;28.33;;
20896;SDS011;10608;42.600;23.398;2022-11-15T15:49:43;34.73;;;33.23;;
20896;SDS011;10608;42.600;23.398;2022-11-15T15:52:09;27.87;;;26.70;;
20896;SDS011;10608;42.600;23.398;2022-11-15T15:54:34;31.47;;;30.10;;
20896;SDS011;10608;42.600;23.398;2022-11-15T15:57:00;53.73;;;51.20;;
20896;SDS011;10608;42.600;23.398;2022-11-15T15:59:25;50.97;;;48.80;;
20896;SDS011;10608;42.600;23.398;2022-11-15T16:01:51;52.73;;;50.30;;
20896;SDS011;10608;42.600;23.398;2022-11-15T16:04:16;33.80;;;32.40;;
20896;SDS011;10608;42.600;23.398;2022-11-15T16:06:41;25.17;;;24.13;;
20896;SDS011;10608;42.600;23.398;2022-11-15T16:09:13;24.80;;;23.80;;
20896;SDS011;10608;42.600;23.398;2022-11-15T16:11:40;28.73;;;27.47;;
20896;SDS011;10608;42.600;23.398;2022-11-15T16:14:06;28.73;;;27.60;;
20896;SDS011;10608;42.600;23.398;2022-11-15T16:16:32;30.47;;;29.17;;
20896;SDS011;10608;42.600;23.398;2022-11-15T16:18:59;42.83;;;41.03;;
20896;SDS011;10608;42.600;23.398;2022-11-15T16:21:26;53.07;;;50.77;;
20896;SDS011;10608;42.600;23.398;2022-11-15T16:23:52;46.83;;;44.90;;
20896;SDS011;10608;42.600;23.398;2022-11-15T16:26:21;45.30;;;43.43;;
20896;SDS011;10608;42.600;23.398;2022-11-15T16:28:49;41.90;;;40.20;;
20896;SDS011;10608;42.600;23.398;2022-11-15T16:31:14;37.97;;;36.37;;
20896;SDS011;10608;42.600;23.398;2022-11-15T16:33:43;43.67;;;41.87;;
20896;SDS011;10608;42.600;23.398;2022-11-15T16:36:22;40.80;;;39.13;;
20896;SDS011;10608;42.600;23.398;2022-11-15T16:38:49;35.70;;;34.20;;
20896;SDS011;10608;42.600;23.398;2022-11-15T16:41:15;38.90;;;37.10;;
20896;SDS011;10608;42.600;23.398;2022-11-15T16:43:43;34.90;;;33.50;;
20896;SDS011;10608;42.600;23.398;2022-11-15T16:46:20;36.87;;;35.37;;